sensor_id;sensor_type;location;lat;lon;timestamp;P1;durP1;ratioP1;P2;durP2;ratioP2
77400;SDS011;66855;45.414;11.082;2023-05-27T00:01:57;10.10;;;8.70;;
77400;SDS011;66855;45.414;11.082;2023-05-27T00:04:23;17.20;;;7.60;;
77400;SDS011;66855;45.414;11.082;2023-05-27T00:06:50;14.50;;;7.80;;
77400;SDS011;66855;45.414;11.082;2023-05-27T00:09:17;13.20;;;8.00;;
77400;SDS011;66855;45.414;11.082;2023-05-27T00:11:44;12.90;;;8.20;;
77400;SDS011;66855;45.414;11.082;2023-05-27T00:14:11;10.10;;;7.40;;
77400;SDS011;66855;45.414;11.082;2023-05-27T00:16:38;10.90;;;8.20;;
77400;SDS011;66855;45.414;11.082;2023-05-27T00:19:04;11.00;;;8.10;;
77400;SDS011;66855;45.414;11.082;2023-05-27T00:21:31;9.60;;;7.40;;
77400;SDS011;66855;45.414;11.082;2023-05-27T00:23:58;11.10;;;7.70;;
77400;SDS011;66855;45.414;11.082;2023-05-27T00:26:25;8.60;;;6.90;;
77400;SDS011;66855;45.414;11.082;2023-05-27T00:28:52;7.70;;;5.60;;
77400;SDS011;66855;45.414;11.082;2023-05-27T00:31:19;13.50;;;6.00;;
77400;SDS011;66855;45.414;11.082;2023-05-27T00:33:46;8.20;;;5.20;;
77400;SDS011;66855;45.414;11.082;2023-05-27T00:36:13;7.80;;;5.60;;
77400;SDS011;66855;45.414;11.082;2023-05-27T00:38:40;9.60;;;5.70;;
77400;SDS011;66855;45.414;11.082;2023-05-27T00:41:06;9.10;;;4.70;;
77400;SDS011;66855;45.414;11.082;2023-05-27T00:43:33;7.30;;;4.10;;
77400;SDS011;66855;45.414;11.082;2023-05-27T00:46:00;5.80;;;2.60;;
77400;SDS011;66855;45.414;11.082;2023-05-27T00:48:27;4.00;;;1.90;;
77400;SDS011;66855;45.414;11.082;2023-05-27T00:50:54;6.60;;;2.50;;
77400;SDS011;66855;45.414;11.082;2023-05-27T00:53:21;3.20;;;1.80;;
77400;SDS011;66855;45.414;11.082;2023-05-27T00:55:48;4.10;;;1.80;;
77400;SDS011;66855;45.414;11.082;2023-05-27T00:58:16;4.00;;;2.00;;
77400;SDS011;66855;45.414;11.082;2023-05-27T01:00:44;4.70;;;2.60;;
77400;SDS011;66855;45.414;11.082;2023-05-27T01:03:11;4.00;;;2.70;;
77400;SDS011;66855;45.414;11.082;2023-05-27T01:05:38;6.60;;;3.10;;
77400;SDS011;66855;45.414;11.082;2023-05-27T01:10:44;2.80;;;2.40;;
77400;SDS011;66855;45.414;11.082;2023-05-27T01:13:27;3.90;;;1.90;;
77400;SDS011;66855;45.414;11.082;2023-05-27T01:15:56;2.90;;;1.50;;
77400;SDS011;66855;45.414;11.082;2023-05-27T01:18:26;3.40;;;1.80;;
77400;SDS011;66855;45.414;11.082;2023-05-27T01:20:59;3.20;;;1.90;;
77400;SDS011;66855;45.414;11.082;2023-05-27T01:23:28;2.30;;;2.00;;
77400;SDS011;66855;45.414;11.082;2023-05-27T01:25:55;2.20;;;1.70;;
77400;SDS011;66855;45.414;11.082;2023-05-27T01:28:22;3.50;;;1.70;;
77400;SDS011;66855;45.414;11.082;2023-05-27T01:30:49;3.60;;;1.90;;
77400;SDS011;66855;45.414;11.082;2023-05-27T01:33:19;3.10;;;2.10;;
77400;SDS011;66855;45.414;11.082;2023-05-27T01:35:51;2.90;;;2.00;;
77400;SDS011;66855;45.414;11.082;2023-05-27T01:38:20;4.30;;;2.10;;
77400;SDS011;66855;45.414;11.082;2023-05-27T01:40:48;2.90;;;2.30;;
77400;SDS011;66855;45.414;11.082;2023-05-27T01:43:15;2.80;;;2.40;;
77400;SDS011;66855;45.414;11.082;2023-05-27T01:48:11;3.90;;;2.40;;
77400;SDS011;66855;45.414;11.082;2023-05-27T01:50:37;4.40;;;2.40;;
77400;SDS011;66855;45.414;11.082;2023-05-27T01:53:05;3.00;;;2.30;;
77400;SDS011;66855;45.414;11.082;2023-05-27T01:55:31;3.70;;;2.40;;
77400;SDS011;66855;45.414;11.082;2023-05-27T01:57:58;3.00;;;2.30;;
77400;SDS011;66855;45.414;11.082;2023-05-27T02:00:25;3.60;;;2.00;;
77400;SDS011;66855;45.414;11.082;2023-05-27T02:02:52;3.20;;;2.50;;
77400;SDS011;66855;45.414;11.082;2023-05-27T02:05:20;3.00;;;2.00;;
77400;SDS011;66855;45.414;11.082;2023-05-27T02:07:47;2.20;;;1.80;;
77400;SDS011;66855;45.414;11.082;2023-05-27T02:10:14;3.00;;;1.80;;
77400;SDS011;66855;45.414;11.082;2023-05-27T02:12:40;3.60;;;2.00;;
77400;SDS011;66855;45.414;11.082;2023-05-27T02:15:07;3.30;;;1.80;;
77400;SDS011;66855;45.414;11.082;2023-05-27T02:17:35;2.70;;;1.90;;
77400;SDS011;66855;45.414;11.082;2023-05-27T02:20:04;4.20;;;1.90;;
77400;SDS011;66855;45.414;11.082;2023-05-27T02:22:34;2.90;;;1.90;;
77400;SDS011;66855;45.414;11.082;2023-05-27T02:25:01;2.60;;;1.50;;
77400;SDS011;66855;45.414;11.082;2023-05-27T02:27:28;1.70;;;1.40;;
77400;SDS011;66855;45.414;11.082;2023-05-27T02:29:54;2.00;;;1.80;;
77400;SDS011;66855;45.414;11.082;2023-05-27T02:32:21;2.50;;;1.80;;
77400;SDS011;66855;45.414;11.082;2023-05-27T02:34:48;2.20;;;1.60;;
77400;SDS011;66855;45.414;11.082;2023-05-27T02:37:16;3.50;;;1.60;;
77400;SDS011;66855;45.414;11.082;2023-05-27T02:39:42;1.90;;;1.60;;
77400;SDS011;66855;45.414;11.082;2023-05-27T02:42:09;1.90;;;1.40;;
77400;SDS011;66855;45.414;11.082;2023-05-27T02:44:37;1.80;;;1.50;;
77400;SDS011;66855;45.414;11.082;2023-05-27T02:47:04;4.00;;;1.60;;
77400;SDS011;66855;45.414;11.082;2023-05-27T02:49:30;1.60;;;1.30;;
77400;SDS011;66855;45.414;11.082;2023-05-27T02:51:57;2.70;;;1.40;;
77400;SDS011;66855;45.414;11.082;2023-05-27T02:54:24;2.30;;;1.30;;
77400;SDS011;66855;45.414;11.082;2023-05-27T02:56:51;3.10;;;1.10;;
77400;SDS011;66855;45.414;11.082;2023-05-27T02:59:18;1.90;;;1.30;;
77400;SDS011;66855;45.414;11.082;2023-05-27T03:01:46;2.40;;;1.00;;
77400;SDS011;66855;45.414;11.082;2023-05-27T03:04:12;1.60;;;1.10;;
77400;SDS011;66855;45.414;11.082;2023-05-27T03:06:39;2.10;;;1.30;;
77400;SDS011;66855;45.414;11.082;2023-05-27T03:09:08;1.50;;;1.20;;
77400;SDS011;66855;45.414;11.082;2023-05-27T03:11:35;1.30;;;1.00;;
77400;SDS011;66855;45.414;11.082;2023-05-27T03:14:02;2.20;;;1.30;;
77400;SDS011;66855;45.414;11.082;2023-05-27T03:16:29;2.10;;;1.30;;
77400;SDS011;66855;45.414;11.082;2023-05-27T03:18:56;2.40;;;1.20;;
77400;SDS011;66855;45.414;11.082;2023-05-27T03:21:23;1.90;;;1.20;;
77400;SDS011;66855;45.414;11.082;2023-05-27T03:23:50;2.30;;;1.20;;
77400;SDS011;66855;45.414;11.082;2023-05-27T03:26:17;2.40;;;1.30;;
77400;SDS011;66855;45.414;11.082;2023-05-27T03:28:44;2.50;;;1.40;;
77400;SDS011;66855;45.414;11.082;2023-05-27T03:31:11;2.40;;;1.50;;
77400;SDS011;66855;45.414;11.082;2023-05-27T03:33:50;2.50;;;1.40;;
77400;SDS011;66855;45.414;11.082;2023-05-27T03:36:17;2.30;;;1.50;;
77400;SDS011;66855;45.414;11.082;2023-05-27T03:38:43;3.10;;;1.20;;
77400;SDS011;66855;45.414;11.082;2023-05-27T03:41:10;1.50;;;1.20;;
77400;SDS011;66855;45.414;11.082;2023-05-27T03:43:37;2.00;;;1.60;;
77400;SDS011;66855;45.414;11.082;2023-05-27T03:46:04;2.70;;;1.60;;
77400;SDS011;66855;45.414;11.082;2023-05-27T03:48:33;4.10;;;1.50;;
77400;SDS011;66855;45.414;11.082;2023-05-27T03:51:00;1.90;;;1.50;;
77400;SDS011;66855;45.414;11.082;2023-05-27T03:53:26;3.70;;;2.20;;
77400;SDS011;66855;45.414;11.082;2023-05-27T03:55:53;2.40;;;1.80;;
77400;SDS011;66855;45.414;11.082;2023-05-27T03:58:20;2.10;;;1.70;;
77400;SDS011;66855;45.414;11.082;2023-05-27T04:00:47;1.90;;;1.70;;
77400;SDS011;66855;45.414;11.082;2023-05-27T04:03:15;2.10;;;1.70;;
77400;SDS011;66855;45.414;11.082;2023-05-27T04:05:42;2.50;;;2.00;;
77400;SDS011;66855;45.414;11.082;2023-05-27T04:08:09;4.40;;;2.30;;
77400;SDS011;66855;45.414;11.082;2023-05-27T04:10:37;2.40;;;1.80;;
77400;SDS011;66855;45.414;11.082;2023-05-27T04:13:04;3.40;;;1.40;;
77400;SDS011;66855;45.414;11.082;2023-05-27T04:15:32;1.90;;;1.60;;
77400;SDS011;66855;45.414;11.082;2023-05-27T04:18:00;2.60;;;1.60;;
77400;SDS011;66855;45.414;11.082;2023-05-27T04:20:34;4.20;;;1.60;;
77400;SDS011;66855;45.414;11.082;2023-05-27T04:25:29;2.50;;;1.60;;
77400;SDS011;66855;45.414;11.082;2023-05-27T04:28:03;2.20;;;1.50;;
77400;SDS011;66855;45.414;11.082;2023-05-27T04:30:31;2.10;;;1.20;;
77400;SDS011;66855;45.414;11.082;2023-05-27T04:32:59;3.60;;;1.50;;
77400;SDS011;66855;45.414;11.082;2023-05-27T04:35:27;2.20;;;1.70;;
77400;SDS011;66855;45.414;11.082;2023-05-27T04:37:54;3.00;;;1.60;;
77400;SDS011;66855;45.414;11.082;2023-05-27T04:40:22;1.90;;;1.60;;
77400;SDS011;66855;45.414;11.082;2023-05-27T04:43:04;3.20;;;1.70;;
77400;SDS011;66855;45.414;11.082;2023-05-27T04:45:31;2.10;;;1.50;;
77400;SDS011;66855;45.414;11.082;2023-05-27T04:47:59;2.50;;;1.50;;
77400;SDS011;66855;45.414;11.082;2023-05-27T04:50:34;2.20;;;1.60;;
77400;SDS011;66855;45.414;11.082;2023-05-27T04:53:01;3.50;;;1.50;;
77400;SDS011;66855;45.414;11.082;2023-05-27T04:55:33;2.20;;;1.60;;
77400;SDS011;66855;45.414;11.082;2023-05-27T04:58:00;2.50;;;1.70;;
77400;SDS011;66855;45.414;11.082;2023-05-27T05:00:30;2.70;;;1.50;;
77400;SDS011;66855;45.414;11.082;2023-05-27T05:03:20;4.20;;;2.00;;
77400;SDS011;66855;45.414;11.082;2023-05-27T05:05:52;4.10;;;2.50;;
77400;SDS011;66855;45.414;11.082;2023-05-27T05:08:21;2.60;;;2.00;;
77400;SDS011;66855;45.414;11.082;2023-05-27T05:10:52;2.80;;;2.20;;
77400;SDS011;66855;45.414;11.082;2023-05-27T05:13:25;4.50;;;1.80;;
77400;SDS011;66855;45.414;11.082;2023-05-27T05:15:56;3.10;;;1.90;;
77400;SDS011;66855;45.414;11.082;2023-05-27T05:18:23;4.50;;;2.10;;
77400;SDS011;66855;45.414;11.082;2023-05-27T05:20:52;3.20;;;2.00;;
77400;SDS011;66855;45.414;11.082;2023-05-27T05:23:26;2.00;;;1.80;;
77400;SDS011;66855;45.414;11.082;2023-05-27T05:25:54;3.10;;;1.70;;
77400;SDS011;66855;45.414;11.082;2023-05-27T05:28:29;2.30;;;1.70;;
77400;SDS011;66855;45.414;11.082;2023-05-27T05:30:56;2.60;;;1.70;;
77400;SDS011;66855;45.414;11.082;2023-05-27T05:33:23;2.10;;;1.70;;
77400;SDS011;66855;45.414;11.082;2023-05-27T05:35:51;2.60;;;1.70;;
77400;SDS011;66855;45.414;11.082;2023-05-27T05:38:22;2.70;;;1.70;;
77400;SDS011;66855;45.414;11.082;2023-05-27T05:40:50;2.80;;;1.50;;
77400;SDS011;66855;45.414;11.082;2023-05-27T05:43:19;2.80;;;1.60;;
77400;SDS011;66855;45.414;11.082;2023-05-27T05:45:46;4.00;;;2.00;;
77400;SDS011;66855;45.414;11.082;2023-05-27T05:48:16;2.70;;;1.80;;
77400;SDS011;66855;45.414;11.082;2023-05-27T05:50:44;2.20;;;1.60;;
77400;SDS011;66855;45.414;11.082;2023-05-27T05:53:12;2.60;;;1.80;;
77400;SDS011;66855;45.414;11.082;2023-05-27T05:55:40;2.90;;;1.60;;
77400;SDS011;66855;45.414;11.082;2023-05-27T05:58:07;3.10;;;1.50;;
77400;SDS011;66855;45.414;11.082;2023-05-27T06:00:34;2.40;;;1.50;;
77400;SDS011;66855;45.414;11.082;2023-05-27T06:03:24;3.50;;;1.60;;
77400;SDS011;66855;45.414;11.082;2023-05-27T06:05:54;10.30;;;3.10;;
77400;SDS011;66855;45.414;11.082;2023-05-27T06:08:21;8.40;;;2.50;;
77400;SDS011;66855;45.414;11.082;2023-05-27T06:10:56;5.60;;;2.20;;
77400;SDS011;66855;45.414;11.082;2023-05-27T06:13:23;6.30;;;2.50;;
77400;SDS011;66855;45.414;11.082;2023-05-27T06:15:50;4.90;;;2.00;;
77400;SDS011;66855;45.414;11.082;2023-05-27T06:18:17;4.50;;;2.00;;
77400;SDS011;66855;45.414;11.082;2023-05-27T06:20:45;5.00;;;1.80;;
77400;SDS011;66855;45.414;11.082;2023-05-27T06:23:16;6.20;;;2.00;;
77400;SDS011;66855;45.414;11.082;2023-05-27T06:26:06;2.90;;;1.80;;
77400;SDS011;66855;45.414;11.082;2023-05-27T06:28:39;2.40;;;1.60;;
77400;SDS011;66855;45.414;11.082;2023-05-27T06:31:07;3.30;;;2.10;;
77400;SDS011;66855;45.414;11.082;2023-05-27T06:33:41;4.40;;;2.00;;
77400;SDS011;66855;45.414;11.082;2023-05-27T06:36:08;2.50;;;2.10;;
77400;SDS011;66855;45.414;11.082;2023-05-27T06:38:39;3.40;;;2.00;;
77400;SDS011;66855;45.414;11.082;2023-05-27T06:41:06;5.80;;;2.00;;
77400;SDS011;66855;45.414;11.082;2023-05-27T06:43:35;3.90;;;2.50;;
77400;SDS011;66855;45.414;11.082;2023-05-27T06:46:13;3.30;;;2.90;;
77400;SDS011;66855;45.414;11.082;2023-05-27T06:48:52;4.90;;;2.70;;
77400;SDS011;66855;45.414;11.082;2023-05-27T06:51:22;4.20;;;3.40;;
77400;SDS011;66855;45.414;11.082;2023-05-27T06:53:49;5.80;;;3.50;;
77400;SDS011;66855;45.414;11.082;2023-05-27T06:56:22;4.30;;;3.90;;
77400;SDS011;66855;45.414;11.082;2023-05-27T06:59:00;5.40;;;3.90;;
77400;SDS011;66855;45.414;11.082;2023-05-27T07:01:27;5.50;;;4.20;;
77400;SDS011;66855;45.414;11.082;2023-05-27T07:03:59;7.30;;;4.70;;
77400;SDS011;66855;45.414;11.082;2023-05-27T07:06:46;6.00;;;3.90;;
77400;SDS011;66855;45.414;11.082;2023-05-27T07:09:13;5.40;;;4.00;;
77400;SDS011;66855;45.414;11.082;2023-05-27T07:11:40;5.20;;;3.90;;
77400;SDS011;66855;45.414;11.082;2023-05-27T07:14:11;5.20;;;4.10;;
77400;SDS011;66855;45.414;11.082;2023-05-27T07:16:39;5.90;;;4.50;;
77400;SDS011;66855;45.414;11.082;2023-05-27T07:19:07;4.70;;;3.90;;
77400;SDS011;66855;45.414;11.082;2023-05-27T07:21:42;7.00;;;4.70;;
77400;SDS011;66855;45.414;11.082;2023-05-27T07:24:16;7.50;;;4.70;;
77400;SDS011;66855;45.414;11.082;2023-05-27T07:26:47;6.20;;;4.50;;
77400;SDS011;66855;45.414;11.082;2023-05-27T07:29:14;5.00;;;4.50;;
77400;SDS011;66855;45.414;11.082;2023-05-27T07:31:50;4.70;;;4.20;;
77400;SDS011;66855;45.414;11.082;2023-05-27T07:34:19;6.90;;;4.30;;
77400;SDS011;66855;45.414;11.082;2023-05-27T07:36:47;6.50;;;4.20;;
77400;SDS011;66855;45.414;11.082;2023-05-27T07:39:14;5.80;;;4.20;;
77400;SDS011;66855;45.414;11.082;2023-05-27T07:41:41;6.20;;;3.90;;
77400;SDS011;66855;45.414;11.082;2023-05-27T07:44:08;5.00;;;4.00;;
77400;SDS011;66855;45.414;11.082;2023-05-27T07:46:35;5.30;;;4.70;;
77400;SDS011;66855;45.414;11.082;2023-05-27T07:49:05;6.40;;;4.50;;
77400;SDS011;66855;45.414;11.082;2023-05-27T07:51:37;12.00;;;4.70;;
77400;SDS011;66855;45.414;11.082;2023-05-27T07:54:07;6.10;;;4.40;;
77400;SDS011;66855;45.414;11.082;2023-05-27T07:56:33;7.40;;;4.50;;
77400;SDS011;66855;45.414;11.082;2023-05-27T07:59:01;10.30;;;4.90;;
77400;SDS011;66855;45.414;11.082;2023-05-27T08:01:28;5.20;;;4.50;;
77400;SDS011;66855;45.414;11.082;2023-05-27T08:03:59;6.20;;;4.10;;
77400;SDS011;66855;45.414;11.082;2023-05-27T08:07:04;6.00;;;4.00;;
77400;SDS011;66855;45.414;11.082;2023-05-27T08:10:07;6.60;;;4.10;;
77400;SDS011;66855;45.414;11.082;2023-05-27T08:12:52;6.20;;;4.10;;
77400;SDS011;66855;45.414;11.082;2023-05-27T08:15:45;6.80;;;4.60;;
77400;SDS011;66855;45.414;11.082;2023-05-27T08:18:42;7.30;;;4.60;;
77400;SDS011;66855;45.414;11.082;2023-05-27T08:21:22;6.10;;;3.90;;
77400;SDS011;66855;45.414;11.082;2023-05-27T08:24:08;6.70;;;4.40;;
77400;SDS011;66855;45.414;11.082;2023-05-27T08:26:53;6.50;;;4.10;;
77400;SDS011;66855;45.414;11.082;2023-05-27T08:29:29;6.70;;;4.20;;
77400;SDS011;66855;45.414;11.082;2023-05-27T08:32:17;5.40;;;4.40;;
77400;SDS011;66855;45.414;11.082;2023-05-27T08:34:53;4.90;;;3.70;;
77400;SDS011;66855;45.414;11.082;2023-05-27T08:37:22;5.80;;;4.10;;
77400;SDS011;66855;45.414;11.082;2023-05-27T08:39:50;9.90;;;4.40;;
77400;SDS011;66855;45.414;11.082;2023-05-27T08:42:46;5.70;;;4.30;;
77400;SDS011;66855;45.414;11.082;2023-05-27T08:45:14;6.10;;;4.80;;
77400;SDS011;66855;45.414;11.082;2023-05-27T08:50:19;6.10;;;4.20;;
77400;SDS011;66855;45.414;11.082;2023-05-27T08:52:47;7.30;;;4.60;;
77400;SDS011;66855;45.414;11.082;2023-05-27T08:55:20;5.80;;;4.40;;
77400;SDS011;66855;45.414;11.082;2023-05-27T08:57:51;7.60;;;4.40;;
77400;SDS011;66855;45.414;11.082;2023-05-27T09:00:26;5.50;;;4.80;;
77400;SDS011;66855;45.414;11.082;2023-05-27T09:02:58;6.60;;;4.50;;
77400;SDS011;66855;45.414;11.082;2023-05-27T09:05:33;6.70;;;4.60;;
77400;SDS011;66855;45.414;11.082;2023-05-27T09:08:00;6.50;;;4.60;;
77400;SDS011;66855;45.414;11.082;2023-05-27T09:10:36;7.10;;;4.70;;
77400;SDS011;66855;45.414;11.082;2023-05-27T09:13:08;5.80;;;4.60;;
77400;SDS011;66855;45.414;11.082;2023-05-27T09:15:35;6.40;;;4.70;;
77400;SDS011;66855;45.414;11.082;2023-05-27T09:18:26;6.40;;;4.30;;
77400;SDS011;66855;45.414;11.082;2023-05-27T09:20:55;6.10;;;4.40;;
77400;SDS011;66855;45.414;11.082;2023-05-27T09:23:23;5.30;;;4.60;;
77400;SDS011;66855;45.414;11.082;2023-05-27T09:25:51;6.60;;;4.60;;
77400;SDS011;66855;45.414;11.082;2023-05-27T09:28:24;6.60;;;4.50;;
77400;SDS011;66855;45.414;11.082;2023-05-27T09:30:59;6.70;;;4.50;;
77400;SDS011;66855;45.414;11.082;2023-05-27T09:33:36;6.70;;;4.80;;
77400;SDS011;66855;45.414;11.082;2023-05-27T09:36:06;5.20;;;4.70;;
77400;SDS011;66855;45.414;11.082;2023-05-27T09:38:34;5.40;;;4.30;;
77400;SDS011;66855;45.414;11.082;2023-05-27T09:41:06;7.10;;;4.20;;
77400;SDS011;66855;45.414;11.082;2023-05-27T09:43:32;6.50;;;4.60;;
77400;SDS011;66855;45.414;11.082;2023-05-27T09:46:01;5.50;;;4.50;;
77400;SDS011;66855;45.414;11.082;2023-05-27T09:48:34;6.70;;;4.90;;
77400;SDS011;66855;45.414;11.082;2023-05-27T09:51:01;4.80;;;3.90;;
77400;SDS011;66855;45.414;11.082;2023-05-27T09:53:30;5.00;;;3.80;;
77400;SDS011;66855;45.414;11.082;2023-05-27T09:55:57;5.90;;;3.90;;
77400;SDS011;66855;45.414;11.082;2023-05-27T09:58:25;4.80;;;3.40;;
77400;SDS011;66855;45.414;11.082;2023-05-27T10:00:52;5.60;;;4.40;;
77400;SDS011;66855;45.414;11.082;2023-05-27T10:03:22;5.50;;;4.00;;
77400;SDS011;66855;45.414;11.082;2023-05-27T10:05:50;6.40;;;5.20;;
77400;SDS011;66855;45.414;11.082;2023-05-27T10:08:18;8.10;;;4.80;;
77400;SDS011;66855;45.414;11.082;2023-05-27T10:10:51;6.20;;;4.40;;
77400;SDS011;66855;45.414;11.082;2023-05-27T10:13:21;5.80;;;4.50;;
77400;SDS011;66855;45.414;11.082;2023-05-27T10:15:51;6.00;;;4.50;;
77400;SDS011;66855;45.414;11.082;2023-05-27T10:18:24;5.30;;;4.80;;
77400;SDS011;66855;45.414;11.082;2023-05-27T10:20:54;7.80;;;4.60;;
77400;SDS011;66855;45.414;11.082;2023-05-27T10:23:25;11.90;;;5.50;;
77400;SDS011;66855;45.414;11.082;2023-05-27T10:25:55;6.80;;;4.50;;
77400;SDS011;66855;45.414;11.082;2023-05-27T10:28:33;5.90;;;4.20;;
77400;SDS011;66855;45.414;11.082;2023-05-27T10:31:18;7.70;;;4.80;;
77400;SDS011;66855;45.414;11.082;2023-05-27T10:33:46;5.20;;;4.60;;
77400;SDS011;66855;45.414;11.082;2023-05-27T10:36:27;5.80;;;4.60;;
77400;SDS011;66855;45.414;11.082;2023-05-27T10:39:14;6.60;;;4.60;;
77400;SDS011;66855;45.414;11.082;2023-05-27T10:41:49;5.50;;;4.10;;
77400;SDS011;66855;45.414;11.082;2023-05-27T10:44:33;7.00;;;5.10;;
77400;SDS011;66855;45.414;11.082;2023-05-27T10:47:02;5.50;;;4.60;;
77400;SDS011;66855;45.414;11.082;2023-05-27T10:49:45;5.80;;;4.50;;
77400;SDS011;66855;45.414;11.082;2023-05-27T10:52:15;6.10;;;4.30;;
77400;SDS011;66855;45.414;11.082;2023-05-27T10:54:44;8.30;;;5.00;;
77400;SDS011;66855;45.414;11.082;2023-05-27T10:57:19;6.70;;;4.50;;
77400;SDS011;66855;45.414;11.082;2023-05-27T10:59:49;6.50;;;4.40;;
77400;SDS011;66855;45.414;11.082;2023-05-27T11:02:17;5.70;;;4.70;;
77400;SDS011;66855;45.414;11.082;2023-05-27T11:04:47;5.50;;;5.00;;
77400;SDS011;66855;45.414;11.082;2023-05-27T11:07:18;6.50;;;4.80;;
77400;SDS011;66855;45.414;11.082;2023-05-27T11:09:48;5.90;;;4.60;;
77400;SDS011;66855;45.414;11.082;2023-05-27T11:12:19;6.10;;;5.00;;
77400;SDS011;66855;45.414;11.082;2023-05-27T11:14:51;5.60;;;4.50;;
77400;SDS011;66855;45.414;11.082;2023-05-27T11:17:21;6.30;;;5.50;;
77400;SDS011;66855;45.414;11.082;2023-05-27T11:20:04;5.70;;;4.90;;
77400;SDS011;66855;45.414;11.082;2023-05-27T11:22:34;5.00;;;4.40;;
77400;SDS011;66855;45.414;11.082;2023-05-27T11:25:05;7.70;;;4.90;;
77400;SDS011;66855;45.414;11.082;2023-05-27T11:27:38;6.40;;;4.80;;
77400;SDS011;66855;45.414;11.082;2023-05-27T11:30:09;5.90;;;4.80;;
77400;SDS011;66855;45.414;11.082;2023-05-27T11:32:40;5.10;;;4.10;;
77400;SDS011;66855;45.414;11.082;2023-05-27T11:35:17;6.00;;;4.70;;
77400;SDS011;66855;45.414;11.082;2023-05-27T11:37:51;5.50;;;4.90;;
77400;SDS011;66855;45.414;11.082;2023-05-27T11:40:18;7.40;;;5.20;;
77400;SDS011;66855;45.414;11.082;2023-05-27T11:42:45;5.50;;;4.60;;
77400;SDS011;66855;45.414;11.082;2023-05-27T11:45:18;6.20;;;4.80;;
77400;SDS011;66855;45.414;11.082;2023-05-27T11:47:47;6.30;;;4.80;;
77400;SDS011;66855;45.414;11.082;2023-05-27T11:50:24;6.40;;;4.20;;
77400;SDS011;66855;45.414;11.082;2023-05-27T11:52:55;6.80;;;4.50;;
77400;SDS011;66855;45.414;11.082;2023-05-27T11:55:26;5.30;;;4.50;;
77400;SDS011;66855;45.414;11.082;2023-05-27T11:57:54;7.30;;;4.70;;
77400;SDS011;66855;45.414;11.082;2023-05-27T12:00:22;7.60;;;5.00;;
77400;SDS011;66855;45.414;11.082;2023-05-27T12:02:49;7.80;;;5.20;;
77400;SDS011;66855;45.414;11.082;2023-05-27T12:05:21;6.70;;;4.10;;
77400;SDS011;66855;45.414;11.082;2023-05-27T12:08:48;5.90;;;4.60;;
77400;SDS011;66855;45.414;11.082;2023-05-27T12:11:16;5.80;;;5.00;;
77400;SDS011;66855;45.414;11.082;2023-05-27T12:13:43;4.80;;;4.00;;
77400;SDS011;66855;45.414;11.082;2023-05-27T12:16:10;5.40;;;4.40;;
77400;SDS011;66855;45.414;11.082;2023-05-27T12:18:37;5.30;;;4.80;;
77400;SDS011;66855;45.414;11.082;2023-05-27T12:21:05;6.30;;;4.70;;
77400;SDS011;66855;45.414;11.082;2023-05-27T12:23:32;5.20;;;4.30;;
77400;SDS011;66855;45.414;11.082;2023-05-27T12:26:03;5.60;;;4.60;;
77400;SDS011;66855;45.414;11.082;2023-05-27T12:28:31;5.60;;;5.00;;
77400;SDS011;66855;45.414;11.082;2023-05-27T12:30:58;5.50;;;4.60;;
77400;SDS011;66855;45.414;11.082;2023-05-27T12:33:26;6.00;;;4.50;;
77400;SDS011;66855;45.414;11.082;2023-05-27T12:36:00;5.50;;;4.20;;
77400;SDS011;66855;45.414;11.082;2023-05-27T12:38:29;5.10;;;4.50;;
77400;SDS011;66855;45.414;11.082;2023-05-27T12:40:58;5.00;;;4.40;;
77400;SDS011;66855;45.414;11.082;2023-05-27T12:43:25;5.80;;;4.40;;
77400;SDS011;66855;45.414;11.082;2023-05-27T12:45:57;6.80;;;4.40;;
77400;SDS011;66855;45.414;11.082;2023-05-27T12:48:25;4.80;;;4.10;;
77400;SDS011;66855;45.414;11.082;2023-05-27T12:50:52;5.40;;;4.60;;
77400;SDS011;66855;45.414;11.082;2023-05-27T12:53:19;6.10;;;5.10;;
77400;SDS011;66855;45.414;11.082;2023-05-27T12:55:46;5.60;;;4.80;;
77400;SDS011;66855;45.414;11.082;2023-05-27T12:58:14;5.90;;;4.60;;
77400;SDS011;66855;45.414;11.082;2023-05-27T13:00:41;5.60;;;4.80;;
77400;SDS011;66855;45.414;11.082;2023-05-27T13:03:11;5.50;;;4.70;;
77400;SDS011;66855;45.414;11.082;2023-05-27T13:05:39;5.90;;;4.50;;
77400;SDS011;66855;45.414;11.082;2023-05-27T13:08:12;5.10;;;4.60;;
77400;SDS011;66855;45.414;11.082;2023-05-27T13:10:40;5.20;;;4.10;;
77400;SDS011;66855;45.414;11.082;2023-05-27T13:13:07;5.40;;;4.90;;
77400;SDS011;66855;45.414;11.082;2023-05-27T13:15:34;6.40;;;4.80;;
77400;SDS011;66855;45.414;11.082;2023-05-27T13:18:02;5.90;;;4.40;;
77400;SDS011;66855;45.414;11.082;2023-05-27T13:20:31;6.10;;;4.50;;
77400;SDS011;66855;45.414;11.082;2023-05-27T13:23:01;6.70;;;4.50;;
77400;SDS011;66855;45.414;11.082;2023-05-27T13:25:34;7.10;;;4.40;;
77400;SDS011;66855;45.414;11.082;2023-05-27T13:28:02;6.20;;;4.00;;
77400;SDS011;66855;45.414;11.082;2023-05-27T13:30:33;5.30;;;4.30;;
77400;SDS011;66855;45.414;11.082;2023-05-27T13:33:00;5.20;;;4.70;;
77400;SDS011;66855;45.414;11.082;2023-05-27T13:35:30;6.10;;;4.70;;
77400;SDS011;66855;45.414;11.082;2023-05-27T13:38:01;5.90;;;4.60;;
77400;SDS011;66855;45.414;11.082;2023-05-27T13:40:29;5.20;;;4.40;;
77400;SDS011;66855;45.414;11.082;2023-05-27T13:42:56;8.30;;;4.50;;
77400;SDS011;66855;45.414;11.082;2023-05-27T13:45:23;4.90;;;4.40;;
77400;SDS011;66855;45.414;11.082;2023-05-27T13:48:10;7.20;;;4.50;;
77400;SDS011;66855;45.414;11.082;2023-05-27T13:50:37;26.90;;;6.80;;
77400;SDS011;66855;45.414;11.082;2023-05-27T13:53:04;5.80;;;4.30;;
77400;SDS011;66855;45.414;11.082;2023-05-27T13:55:35;5.80;;;4.80;;
77400;SDS011;66855;45.414;11.082;2023-05-27T13:58:02;7.60;;;4.50;;
77400;SDS011;66855;45.414;11.082;2023-05-27T14:00:30;9.40;;;4.80;;
77400;SDS011;66855;45.414;11.082;2023-05-27T14:06:06;9.70;;;5.00;;
77400;SDS011;66855;45.414;11.082;2023-05-27T14:08:44;5.60;;;4.80;;
77400;SDS011;66855;45.414;11.082;2023-05-27T14:11:28;4.60;;;4.20;;
77400;SDS011;66855;45.414;11.082;2023-05-27T14:14:35;16.70;;;5.50;;
77400;SDS011;66855;45.414;11.082;2023-05-27T14:17:05;6.40;;;4.40;;
77400;SDS011;66855;45.414;11.082;2023-05-27T14:19:34;8.40;;;4.50;;
77400;SDS011;66855;45.414;11.082;2023-05-27T14:22:04;5.60;;;4.40;;
77400;SDS011;66855;45.414;11.082;2023-05-27T14:24:32;6.50;;;4.60;;
77400;SDS011;66855;45.414;11.082;2023-05-27T14:27:04;6.80;;;3.80;;
77400;SDS011;66855;45.414;11.082;2023-05-27T14:29:47;5.10;;;4.40;;
77400;SDS011;66855;45.414;11.082;2023-05-27T14:32:19;5.80;;;4.10;;
77400;SDS011;66855;45.414;11.082;2023-05-27T14:35:01;6.60;;;4.20;;
77400;SDS011;66855;45.414;11.082;2023-05-27T14:37:47;6.70;;;4.40;;
77400;SDS011;66855;45.414;11.082;2023-05-27T14:40:15;5.70;;;4.30;;
77400;SDS011;66855;45.414;11.082;2023-05-27T14:45:26;7.00;;;4.40;;
77400;SDS011;66855;45.414;11.082;2023-05-27T14:48:21;5.90;;;4.80;;
77400;SDS011;66855;45.414;11.082;2023-05-27T14:50:58;6.10;;;4.10;;
77400;SDS011;66855;45.414;11.082;2023-05-27T14:53:27;5.30;;;4.50;;
77400;SDS011;66855;45.414;11.082;2023-05-27T14:55:56;6.50;;;4.60;;
77400;SDS011;66855;45.414;11.082;2023-05-27T14:58:26;6.70;;;4.70;;
77400;SDS011;66855;45.414;11.082;2023-05-27T15:00:55;5.00;;;4.50;;
77400;SDS011;66855;45.414;11.082;2023-05-27T15:06:31;6.20;;;4.10;;
77400;SDS011;66855;45.414;11.082;2023-05-27T15:09:14;5.20;;;4.40;;
77400;SDS011;66855;45.414;11.082;2023-05-27T15:18:20;5.90;;;4.70;;
77400;SDS011;66855;45.414;11.082;2023-05-27T15:20:58;5.70;;;4.30;;